Country
Station

 

Weather  for  Sandakan  -  Malaysia    Malaysia

  
30 °C (86 °F)
    
 
 

Current METAR for Sandakan is :

WBKS 231000Z 07005KT 020V110 9999 FEW017 BKN300 30/26 Q1007

 

This is a report for Sandakan - Malaysia.
 
The report was made 27 minutes ago, at 10:00 UTC .
The wind was blowing at a speed of 2.6 meters per second (5.8 miles per hour) from east/northeast (070°), varying between north/northeast (020°) and east/southeast (110°).
 
The temperature was 30 °C (86 °F), with a dew-point at 26 °C (79 °F).
The temperature felt like 37 °C (99 °F).
 
The atmospheric pressure was 1007 hPa (29.74 inHg).
The relative humidity was 79.2%.
 
There were a few clouds at a height of 518 meters (1700 feet) and broken clouds at a height of 9144 meters (30000 feet).
 
The overall visibility was greater than 10 kilometers (6.2 miles).
 

 
 
 
 

Country :   A   B   C   D   E   F   G   H   I   J   K   L   M   N   O   P   Q   R   S   T   U   V   W   Y   Z

 

Site Info  |  Disclaimer  |  Credits  |  Privacy
Contact us  |  Add to favorites
© 2013-2018 METARs - All rights reserved